CYGX

Gillam Airport

Gillam, Manitoba, Canada
TAF CYGX 251242Z 2513/2601 24010KT P6SM FEW100 FM251600 30015G25KT P6SM BKN030 TEMPO 2516/2601 3SM -SNRA BR BKN020 BECMG 2518/2520 36015G25KT RMK NXT FCST BY 251900Z
Issued Valid From Valid To
Apr-25 @ 12:42 UTC
(6 hours ago)
Apr-25 @ 13:00 UTC
(5 hours ago)
Apr-26 @ 01:00 UTC
(in 7 hours)
Expired Click to View Apr-25 @ 13:00 to Apr-25 @ 16:00
TAF CYGX 251242Z 2513/2601 24010KT P6SM FEW100
Wind Visibility Clouds
240° at 10 knots Greater than 6 miles
  • Few at 10,000' AGL
Expired Click to View Apr-25 @ 16:00 to Apr-25 @ 18:00
FM251600 30015G25KT P6SM BKN030
Wind Visibility Clouds
300° at 15 knots
 Gusting to 25 knots
Greater than 6 miles
  • Broken at 3,000' AGL
Temporary Apr-25 @ 16:00 to Apr-26 @ 01:00
TEMPO 2516/2601 3SM -SNRA BR BKN020
Visibility Clouds Conditions
3 miles
  • Broken at 2,000' AGL
  • Light Snow
  • Light Rain
  • Mist
Becoming Apr-25 @ 18:00 to Apr-26 @ 01:00
BECMG 2518/2520 36015G25KT RMK NXT FCST BY 251900Z
Wind Visibility Clouds
360° at 15 knots
 Gusting to 25 knots
Greater than 6 miles
  • Broken at 3,000' AGL
TAF CYGX 251242Z 2513/2601 24010KT P6SM FEW100 FM251600 30015G25KT P6SM BKN030 TEMPO 2516/2601 3SM -SNRA BR BKN020 BECMG 2518/2520 36015G25KT RMK NXT FCST BY 251900Z
Issued Apr-25 @ 12:42 UTC
(6 hours ago)
Valid From Apr-25 @ 13:00 UTC
(5 hours ago)
Valid To Apr-26 @ 01:00 UTC
(in 7 hours)
Apr-25 @ 13:00 - Apr-25 @ 16:00
Wind Visibility
240° at 10 knots Greater than 6 miles
Clouds
  • Few at 10,000' AGL
Apr-25 @ 16:00 - Apr-25 @ 18:00
Wind Visibility
300° at 15 knots
 Gusting to 25 knots
Greater than 6 miles
Clouds
  • Broken at 3,000' AGL
Temporary Apr-25 @ 16:00 - Apr-26 @ 01:00
Clouds
  • Broken at 2,000' AGL
Conditions
  • Light Snow
  • Light Rain
  • Mist
Becoming Apr-25 @ 18:00 - Apr-26 @ 01:00
Wind Visibility
360° at 15 knots
 Gusting to 25 knots
Greater than 6 miles
Clouds
  • Broken at 3,000' AGL